Time;durP1;ratioP1;P1;durP2;ratioP2;P2;SDS_P1;SDS_P2;PMS_P1;PMS_P2;Temp;Humidity;BMP_temperature;BMP_pressure;BME280_temperature;BME280_humidity;BME280_pressure;Samples;Min_cycle;Max_cycle;Signal;HPM_P1;HPM_P2
2021/12/21 00:01:27;;;;;;;7.87;3.97;;;12.70;68.90;;;;;;10427292;28;20230;-84
2021/12/21 00:06:29;;;;;;;6.93;3.87;;;12.70;68.70;;;;;;10390697;28;20236;-81
2021/12/21 00:11:32;;;;;;;5.33;3.53;;;12.80;68.50;;;;;;10435615;28;20666;-81
2021/12/21 00:21:41;;;;;;;6.17;3.60;;;12.70;68.30;;;;;;10399684;28;20258;-81
2021/12/21 00:26:43;;;;;;;7.17;4.27;;;12.70;68.30;;;;;;10432242;28;20276;-81
2021/12/21 00:31:47;;;;;;;4.00;2.87;;;12.70;68.40;;;;;;10431345;28;20221;-81
2021/12/21 00:36:49;;;;;;;5.30;4.03;;;12.70;68.40;;;;;;10435430;28;20287;-81
2021/12/21 00:41:52;;;;;;;6.63;4.20;;;12.70;68.20;;;;;;10442597;28;20256;-81
2021/12/21 00:46:54;;;;;;;5.83;3.67;;;12.90;67.80;;;;;;10416438;28;20203;-81
2021/12/21 00:51:57;;;;;;;7.40;3.73;;;12.90;67.50;;;;;;10389805;28;20257;-81
2021/12/21 00:56:59;;;;;;;4.40;3.73;;;12.90;67.40;;;;;;10436672;28;20238;-81
2021/12/21 01:02:02;;;;;;;8.43;4.20;;;12.90;67.40;;;;;;10415294;28;20236;-81
2021/12/21 01:07:16;;;;;;;5.43;3.33;;;12.90;67.10;;;;;;10438755;28;20233;-81
2021/12/21 01:12:37;;;;;;;5.03;3.67;;;12.40;67.80;;;;;;10413869;28;20225;-81
2021/12/21 01:39:00;;;;;;;5.20;3.63;;;12.40;66.10;;;;;;10286907;28;20270;-81
2021/12/21 01:54:30;;;;;;;6.33;3.67;;;12.80;67.20;;;;;;10285986;28;20438;-80
2021/12/21 01:59:34;;;;;;;4.50;3.03;;;12.80;66.50;;;;;;10297030;28;20278;-80
2021/12/21 02:04:38;;;;;;;4.50;3.57;;;12.80;67.40;;;;;;10453281;28;20229;-81
2021/12/21 02:09:41;;;;;;;3.57;2.80;;;12.60;68.00;;;;;;10435782;28;20241;-80
2021/12/21 02:14:53;;;;;;;6.17;3.50;;;12.20;68.60;;;;;;10433762;28;20199;-81
2021/12/21 02:19:59;;;;;;;6.43;3.27;;;12.30;68.40;;;;;;10396577;28;20255;-81
2021/12/21 02:25:31;;;;;;;4.17;2.50;;;12.50;67.90;;;;;;10412281;28;20195;-81
2021/12/21 02:30:28;;;;;;;4.97;3.50;;;12.60;67.90;;;;;;10415276;28;20303;-80
2021/12/21 02:35:31;;;;;;;5.17;3.53;;;12.70;67.50;;;;;;10433620;28;20241;-80
2021/12/21 02:40:34;;;;;;;5.80;3.13;;;12.70;67.50;;;;;;10432801;28;20631;-81
2021/12/21 02:45:38;;;;;;;5.00;3.13;;;12.70;67.60;;;;;;10405442;28;20574;-81
2021/12/21 02:50:42;;;;;;;5.20;3.47;;;11.90;68.90;;;;;;10414868;28;20285;-81
2021/12/21 02:55:44;;;;;;;5.17;3.03;;;12.20;68.80;;;;;;10410627;28;20663;-81
2021/12/21 03:00:47;;;;;;;5.23;2.77;;;12.30;68.70;;;;;;10409875;28;20254;-81
2021/12/21 03:05:54;;;;;;;5.50;3.37;;;12.50;68.20;;;;;;10410132;28;20230;-80
2021/12/21 03:11:13;;;;;;;4.83;2.90;;;12.50;68.20;;;;;;10447015;28;20259;-80
2021/12/21 03:16:16;;;;;;;3.70;3.20;;;12.40;68.30;;;;;;10409900;28;20215;-80
2021/12/21 03:21:19;;;;;;;4.53;2.77;;;12.20;68.70;;;;;;10394877;28;20307;-80
2021/12/21 03:26:21;;;;;;;4.43;3.50;;;12.10;68.90;;;;;;10432706;28;20202;-80
2021/12/21 03:31:24;;;;;;;4.67;3.17;;;12.10;68.90;;;;;;10400844;28;20227;-80
2021/12/21 03:36:27;;;;;;;7.23;3.50;;;12.20;68.60;;;;;;10393143;28;20207;-80
2021/12/21 03:41:29;;;;;;;3.83;2.83;;;12.30;68.50;;;;;;10409437;28;20258;-80
2021/12/21 03:46:32;;;;;;;4.17;2.77;;;12.30;68.70;;;;;;10391674;28;20261;-80
2021/12/21 03:51:35;;;;;;;4.23;3.07;;;12.20;68.70;;;;;;10436534;28;20652;-80
2021/12/21 03:56:41;;;;;;;4.47;2.80;;;12.30;68.60;;;;;;10449872;28;20582;-80
2021/12/21 04:01:45;;;;;;;4.37;2.73;;;12.20;68.70;;;;;;10450292;28;20254;-80
2021/12/21 04:06:48;;;;;;;5.27;2.93;;;12.10;68.80;;;;;;10424502;28;21012;-80
2021/12/21 04:11:50;;;;;;;5.43;3.10;;;12.10;69.10;;;;;;10414585;28;20242;-80
2021/12/21 04:16:53;;;;;;;4.23;3.13;;;12.10;69.10;;;;;;10418372;28;20892;-80
2021/12/21 04:21:55;;;;;;;3.70;2.90;;;12.10;69.00;;;;;;10433352;28;20239;-80
2021/12/21 04:26:58;;;;;;;3.33;2.67;;;12.00;69.40;;;;;;10439398;28;20661;-80
2021/12/21 04:32:00;;;;;;;4.23;2.77;;;12.20;68.90;;;;;;10451658;28;20633;-80
2021/12/21 04:37:03;;;;;;;6.90;2.80;;;12.20;68.60;;;;;;10456711;28;20260;-80
2021/12/21 04:42:06;;;;;;;3.53;2.80;;;12.30;68.40;;;;;;10455810;28;20249;-80
2021/12/21 04:47:08;;;;;;;3.70;2.77;;;12.30;68.30;;;;;;10419656;28;20230;-80
2021/12/21 04:52:11;;;;;;;4.57;2.83;;;12.30;68.30;;;;;;10414955;28;20265;-80
2021/12/21 04:57:14;;;;;;;5.37;2.67;;;12.30;68.30;;;;;;10445557;28;20257;-80
2021/12/21 05:02:17;;;;;;;4.23;3.03;;;12.00;68.80;;;;;;10430460;28;20431;-80
2021/12/21 05:07:23;;;;;;;5.07;2.83;;;12.10;68.70;;;;;;10414235;28;20226;-80
2021/12/21 05:12:26;;;;;;;5.43;3.00;;;12.30;68.30;;;;;;10397061;28;20608;-80
2021/12/21 05:17:28;;;;;;;3.90;2.90;;;12.20;68.40;;;;;;10445115;28;20296;-80
2021/12/21 05:22:31;;;;;;;4.77;2.87;;;12.20;68.40;;;;;;10395955;28;20254;-80
2021/12/21 05:27:33;;;;;;;3.20;2.70;;;12.20;68.20;;;;;;10405950;28;20268;-80
2021/12/21 05:32:36;;;;;;;4.40;3.30;;;12.20;68.40;;;;;;10454665;28;20277;-80
2021/12/21 05:37:40;;;;;;;4.00;2.73;;;12.20;68.20;;;;;;10452704;28;20238;-80
2021/12/21 05:42:45;;;;;;;5.10;3.07;;;12.20;68.30;;;;;;10449894;28;20308;-80
2021/12/21 05:47:47;;;;;;;7.23;4.00;;;12.20;68.20;;;;;;10427418;28;20207;-80
2021/12/21 05:52:50;;;;;;;4.20;2.80;;;12.30;67.90;;;;;;10413396;28;20231;-80
2021/12/21 05:57:53;;;;;;;3.87;2.87;;;12.30;67.90;;;;;;10447806;28;20237;-80
2021/12/21 06:02:56;;;;;;;4.37;2.90;;;12.30;67.80;;;;;;10453759;28;20688;-80
2021/12/21 06:08:00;;;;;;;4.47;3.03;;;12.30;67.80;;;;;;10414301;28;20294;-81
2021/12/21 06:25:21;;;;;;;16.70;9.30;;;12.30;67.80;;;;;;10419460;28;20277;-81
2021/12/21 06:29:23;;;;;;;19.27;9.00;;;10.30;53.50;;;;;;10403657;28;20239;-81
2021/12/21 06:34:25;;;;;;;16.03;7.77;;;9.00;57.40;;;;;;10418083;28;20230;-81
2021/12/21 06:39:28;;;;;;;12.90;6.87;;;8.10;59.00;;;;;;10428345;28;20294;-81
2021/12/21 06:44:31;;;;;;;12.60;7.47;;;9.00;59.60;;;;;;10451801;28;20276;-81
2021/12/21 06:54:56;;;;;;;12.00;6.97;;;9.10;59.00;;;;;;10410248;28;20286;-81
2021/12/21 06:59:59;;;;;;;11.37;6.87;;;8.60;60.70;;;;;;10419779;28;20281;-81
2021/12/21 07:05:01;;;;;;;13.37;6.73;;;8.10;61.60;;;;;;10450028;28;20232;-81
2021/12/21 07:10:08;;;;;;;11.57;6.70;;;7.70;64.40;;;;;;10418829;28;20311;-82
2021/12/21 07:20:32;;;;;;;11.67;7.03;;;8.60;64.10;;;;;;10417307;28;20285;-82
2021/12/21 07:25:35;;;;;;;13.37;6.70;;;8.30;63.00;;;;;;10450488;28;20222;-82
2021/12/21 07:30:37;;;;;;;9.40;5.97;;;7.30;68.50;;;;;;10425181;28;20208;-81
2021/12/21 07:35:40;;;;;;;10.97;6.87;;;8.40;66.20;;;;;;10415068;28;20334;-81
2021/12/21 07:40:42;;;;;;;9.07;5.50;;;8.60;62.00;;;;;;10427104;28;20277;-80
2021/12/21 07:45:45;;;;;;;12.37;5.90;;;9.40;65.20;;;;;;10449712;28;20239;-81
2021/12/21 07:50:49;;;;;;;11.40;5.97;;;10.40;62.70;;;;;;10448966;28;20317;-81
2021/12/21 07:55:52;;;;;;;11.53;6.30;;;10.70;61.80;;;;;;10431773;28;20640;-81
2021/12/21 08:00:54;;;;;;;10.00;5.77;;;10.70;62.20;;;;;;10407977;28;20709;-81
2021/12/21 08:05:59;;;;;;;12.03;6.73;;;10.70;62.20;;;;;;10449225;28;20228;-81
2021/12/21 08:11:11;;;;;;;12.03;6.20;;;10.70;62.60;;;;;;10447590;28;20237;-79
2021/12/21 08:16:14;;;;;;;10.67;6.60;;;10.50;62.90;;;;;;10436577;28;20625;-80
2021/12/21 08:21:18;;;;;;;18.07;9.17;;;10.50;63.50;;;;;;10430449;28;20800;-79
2021/12/21 08:26:21;;;;;;;14.23;7.53;;;10.20;63.60;;;;;;10428986;28;20581;-80
2021/12/21 08:31:23;;;;;;;9.27;6.00;;;10.40;64.20;;;;;;10407591;28;20229;-81
2021/12/21 08:36:27;;;;;;;13.13;7.63;;;10.60;64.10;;;;;;10431303;28;20349;-82
2021/12/21 08:41:31;;;;;;;13.93;8.30;;;10.70;63.70;;;;;;10408073;28;20310;-81
2021/12/21 08:46:34;;;;;;;17.17;8.77;;;10.50;64.20;;;;;;10392034;28;20267;-81
2021/12/21 08:51:37;;;;;;;11.97;7.73;;;9.60;65.20;;;;;;10424799;28;20286;-81
2021/12/21 08:56:40;;;;;;;12.03;7.30;;;8.40;66.80;;;;;;10409134;28;20221;-81
2021/12/21 09:01:44;;;;;;;10.33;7.50;;;8.40;70.30;;;;;;10433538;28;20240;-81
2021/12/21 09:06:47;;;;;;;12.00;6.87;;;8.30;69.10;;;;;;10414062;28;20605;-81
2021/12/21 09:11:52;;;;;;;13.63;6.67;;;6.80;63.70;;;;;;10411179;28;20220;-80
2021/12/21 09:16:56;;;;;;;11.57;6.77;;;7.40;70.70;;;;;;10415443;28;20635;-80
2021/12/21 09:21:58;;;;;;;11.90;7.40;;;7.90;68.90;;;;;;10439100;28;21018;-81
2021/12/21 09:27:01;;;;;;;8.43;5.37;;;8.70;69.90;;;;;;10454340;28;20256;-81
2021/12/21 09:32:04;;;;;;;11.23;6.37;;;8.90;63.10;;;;;;10411495;28;20231;-82
2021/12/21 09:37:14;;;;;;;15.97;8.53;;;8.60;65.60;;;;;;10452997;28;20227;-81
2021/12/21 09:42:20;;;;;;;11.63;6.90;;;8.10;63.70;;;;;;10414503;28;20304;-82
2021/12/21 09:47:23;;;;;;;8.80;5.30;;;8.00;70.80;;;;;;10412676;28;20227;-82
2021/12/21 09:52:29;;;;;;;7.90;4.73;;;9.70;66.90;;;;;;10394001;28;20648;-82
2021/12/21 09:57:32;;;;;;;10.47;6.57;;;8.20;66.90;;;;;;10412215;28;20236;-81
2021/12/21 10:02:35;;;;;;;10.83;6.07;;;9.40;70.30;;;;;;10405695;28;20240;-79
2021/12/21 10:07:38;;;;;;;8.17;5.47;;;10.60;67.50;;;;;;10432484;28;20221;-79
2021/12/21 10:12:46;;;;;;;11.60;6.13;;;11.10;66.00;;;;;;10406665;28;20261;-79
2021/12/21 10:17:54;;;;;;;7.67;5.90;;;11.80;64.00;;;;;;10428094;28;20313;-79
2021/12/21 10:22:56;;;;;;;7.73;5.13;;;12.20;63.00;;;;;;10411565;28;20287;-79
2021/12/21 10:27:59;;;;;;;6.87;4.53;;;12.40;62.70;;;;;;10434172;28;20223;-78
2021/12/21 10:33:01;;;;;;;7.43;5.67;;;12.60;62.00;;;;;;10432858;28;20282;-78
2021/12/21 10:38:07;;;;;;;10.23;6.33;;;12.70;61.60;;;;;;10434734;28;20372;-79
2021/12/21 10:43:10;;;;;;;6.53;4.80;;;12.40;62.00;;;;;;10417037;28;20281;-79
2021/12/21 10:48:18;;;;;;;7.40;5.30;;;12.40;62.20;;;;;;10407759;28;20255;-79
2021/12/21 10:53:24;;;;;;;22.23;7.10;;;12.20;62.60;;;;;;10420611;28;20208;-79
2021/12/21 10:58:29;;;;;;;15.53;7.37;;;10.40;56.80;;;;;;10432992;28;20208;-80
2021/12/21 11:03:38;;;;;;;18.00;7.20;;;11.50;56.50;;;;;;10449674;28;20287;-81
2021/12/21 11:08:44;;;;;;;15.90;6.57;;;12.00;54.70;;;;;;10448655;28;20233;-81
2021/12/21 11:14:15;;;;;;;10.53;5.97;;;12.00;54.70;;;;;;10429983;28;20294;-80
2021/12/21 11:19:20;;;;;;;8.63;5.13;;;12.50;53.90;;;;;;10448677;28;20282;-81
2021/12/21 11:24:23;;;;;;;7.07;2.87;;;12.20;53.40;;;;;;10430905;28;20451;-80
2021/12/21 11:29:26;;;;;;;12.57;5.47;;;11.10;49.40;;;;;;10448676;28;20228;-81
2021/12/21 11:34:33;;;;;;;7.37;4.17;;;10.00;58.90;;;;;;10431540;28;20225;-82
2021/12/21 11:39:38;;;;;;;5.37;3.50;;;10.30;52.50;;;;;;10427724;28;20244;-82
2021/12/21 11:45:07;;;;;;;6.67;3.30;;;11.10;56.90;;;;;;10403689;28;20234;-82
2021/12/21 11:50:11;;;;;;;8.47;3.37;;;11.10;58.00;;;;;;10446977;28;20261;-82
2021/12/21 11:55:15;;;;;;;3.63;2.97;;;11.20;56.10;;;;;;10445100;28;20237;-81
2021/12/21 12:00:27;;;;;;;5.27;3.13;;;11.60;56.70;;;;;;10434124;28;20307;-83
2021/12/21 12:05:32;;;;;;;5.63;2.80;;;12.20;56.60;;;;;;10446174;28;20618;-80
2021/12/21 12:10:37;;;;;;;4.27;3.00;;;10.10;62.00;;;;;;10447040;28;20231;-81
2021/12/21 12:15:52;;;;;;;4.73;3.00;;;8.20;62.10;;;;;;10419378;28;20232;-82
2021/12/21 12:20:55;;;;;;;8.93;3.10;;;7.90;61.20;;;;;;10393627;28;20284;-81
2021/12/21 12:25:58;;;;;;;4.47;2.50;;;7.30;72.00;;;;;;10428774;28;20603;-81
2021/12/21 12:31:02;;;;;;;6.63;2.97;;;10.50;65.60;;;;;;10433231;28;20235;-81
2021/12/21 12:36:05;;;;;;;5.83;3.27;;;6.40;69.70;;;;;;10436311;28;20296;-80
2021/12/21 12:41:12;;;;;;;9.93;4.43;;;7.70;68.60;;;;;;10422878;28;20235;-80
2021/12/21 12:46:27;;;;;;;9.67;4.57;;;8.50;57.80;;;;;;10453496;28;20232;-80
2021/12/21 12:51:38;;;;;;;8.17;4.63;;;6.70;59.60;;;;;;10411741;28;20255;-80
2021/12/21 12:56:40;;;;;;;3.37;2.50;;;6.90;62.50;;;;;;10394573;28;20243;-81
2021/12/21 13:01:46;;;;;;;5.80;2.77;;;9.80;69.50;;;;;;10395719;28;20258;-80
2021/12/21 13:06:51;;;;;;;4.73;3.33;;;10.90;65.80;;;;;;10453396;28;20291;-80
2021/12/21 13:11:54;;;;;;;6.70;2.83;;;9.90;67.60;;;;;;10452962;28;20234;-80
2021/12/21 13:16:58;;;;;;;5.27;2.50;;;11.40;64.30;;;;;;10431823;28;20506;-80
2021/12/21 13:22:03;;;;;;;6.50;3.17;;;12.20;62.50;;;;;;10451423;28;20283;-80
2021/12/21 13:27:11;;;;;;;4.53;2.57;;;12.60;62.60;;;;;;10434201;28;20237;-81
2021/12/21 13:32:17;;;;;;;3.97;2.83;;;12.60;62.00;;;;;;10435514;28;20237;-80
2021/12/21 13:37:22;;;;;;;4.93;2.97;;;12.50;61.60;;;;;;10451502;28;20294;-81
2021/12/21 13:42:27;;;;;;;6.57;2.53;;;12.50;61.90;;;;;;10407621;28;20280;-80
2021/12/21 13:47:34;;;;;;;3.67;2.37;;;12.40;62.60;;;;;;10413125;28;20234;-80
2021/12/21 13:52:38;;;;;;;3.17;2.30;;;12.60;62.30;;;;;;10453702;28;20256;-80
2021/12/21 13:57:41;;;;;;;6.17;3.20;;;12.60;62.40;;;;;;10392667;28;20239;-80
2021/12/21 14:03:01;;;;;;;3.90;2.37;;;12.50;62.80;;;;;;10376842;28;20325;-80
2021/12/21 14:08:04;;;;;;;4.83;2.60;;;12.80;62.60;;;;;;10392967;28;20242;-80
2021/12/21 14:13:07;;;;;;;3.73;2.93;;;12.80;62.20;;;;;;10446326;28;20237;-80
2021/12/21 14:18:34;;;;;;;10.60;4.97;;;12.30;63.20;;;;;;10391680;28;20730;-81
2021/12/21 14:23:40;;;;;;;5.60;3.47;;;11.90;63.90;;;;;;10392395;28;20737;-81
2021/12/21 14:28:51;;;;;;;4.13;2.90;;;10.50;67.40;;;;;;10433745;28;20682;-80
2021/12/21 14:33:56;;;;;;;5.53;3.20;;;11.30;66.90;;;;;;10450283;28;20241;-79
2021/12/21 14:38:59;;;;;;;5.43;3.17;;;11.80;65.40;;;;;;10431041;28;20237;-79
2021/12/21 14:44:16;;;;;;;12.87;4.80;;;12.30;64.30;;;;;;10445342;28;20254;-80
2021/12/21 14:49:52;;;;;;;10.00;5.87;;;11.80;63.90;;;;;;10417393;28;20790;-80
2021/12/21 14:55:19;;;;;;;14.43;7.23;;;11.40;63.40;;;;;;10405293;28;20684;-80
2021/12/21 15:00:25;;;;;;;9.37;4.43;;;10.60;65.10;;;;;;10446295;28;20280;-80
2021/12/21 15:05:31;;;;;;;6.87;4.27;;;10.00;69.10;;;;;;10428175;28;20226;-80
2021/12/21 15:10:36;;;;;;;15.20;8.00;;;10.40;69.60;;;;;;10430463;28;20664;-81
2021/12/21 15:15:39;;;;;;;8.57;5.43;;;10.20;69.90;;;;;;10443672;28;20286;-81
2021/12/21 15:20:41;;;;;;;12.33;7.70;;;10.00;70.30;;;;;;10431106;28;20235;-80
2021/12/21 15:25:44;;;;;;;15.37;10.23;;;11.70;65.80;;;;;;10426027;28;20226;-80
2021/12/21 15:30:47;;;;;;;17.40;10.80;;;11.40;62.60;;;;;;10410237;28;20226;-80
2021/12/21 15:35:49;;;;;;;15.53;9.93;;;11.30;62.90;;;;;;10400451;28;20262;-82
2021/12/21 15:40:53;;;;;;;14.87;8.07;;;11.30;63.30;;;;;;10418220;28;20248;-81
2021/12/21 15:45:55;;;;;;;14.47;8.57;;;8.30;77.10;;;;;;10418565;28;20238;-80
2021/12/21 15:50:58;;;;;;;14.37;9.13;;;10.40;69.00;;;;;;10411988;28;20638;-80
2021/12/21 15:56:01;;;;;;;12.47;8.97;;;11.40;65.70;;;;;;10395662;28;20230;-80
2021/12/21 16:01:05;;;;;;;12.27;8.60;;;11.90;64.70;;;;;;9739593;28;10000620;-81
2021/12/21 16:06:09;;;;;;;11.43;8.40;;;12.10;63.70;;;;;;10446043;28;20232;-80
2021/12/21 16:11:13;;;;;;;14.77;9.40;;;11.80;64.60;;;;;;10450425;28;20242;-80
2021/12/21 16:16:16;;;;;;;11.33;8.13;;;11.90;64.70;;;;;;10434197;28;20888;-80
2021/12/21 16:21:18;;;;;;;12.87;8.13;;;12.10;64.10;;;;;;10450892;28;20284;-80
2021/12/21 16:26:41;;;;;;;15.47;8.63;;;12.10;63.80;;;;;;10440241;28;20225;-80
2021/12/21 16:31:44;;;;;;;13.77;8.93;;;12.10;63.90;;;;;;10401671;28;20287;-80
2021/12/21 16:36:46;;;;;;;15.80;9.73;;;11.90;63.90;;;;;;10433216;28;20256;-81
2021/12/21 16:41:49;;;;;;;15.23;9.07;;;11.10;64.90;;;;;;10437365;28;20242;-80
2021/12/21 16:46:52;;;;;;;19.43;10.37;;;11.10;66.30;;;;;;10428695;28;20234;-80
2021/12/21 16:51:56;;;;;;;11.23;7.87;;;10.40;68.20;;;;;;10387651;28;20262;-80
2021/12/21 16:56:58;;;;;;;12.73;8.60;;;10.70;68.70;;;;;;10389046;28;20262;-80
2021/12/21 17:02:01;;;;;;;15.20;9.50;;;10.50;68.20;;;;;;10407524;28;20954;-81
2021/12/21 17:07:04;;;;;;;16.93;10.53;;;10.70;68.30;;;;;;10433254;28;20229;-80
2021/12/21 17:12:07;;;;;;;14.63;8.20;;;10.40;67.30;;;;;;10399091;28;20238;-79
2021/12/21 17:17:10;;;;;;;20.33;12.90;;;10.60;69.60;;;;;;10382670;28;20615;-79
2021/12/21 17:22:12;;;;;;;23.37;14.17;;;9.70;64.20;;;;;;10406451;23;20347;-87
2021/12/21 17:27:17;;;;;;;24.23;14.93;;;10.70;62.90;;;;;;10409819;28;20255;-86
2021/12/21 17:32:20;;;;;;;22.33;13.53;;;11.00;60.60;;;;;;10425771;28;20301;-87
2021/12/21 17:37:24;;;;;;;22.80;14.77;;;10.30;62.20;;;;;;10409965;28;20740;-87
2021/12/21 17:42:27;;;;;;;46.07;26.17;;;8.40;64.40;;;;;;10410892;28;20272;-87
2021/12/21 17:47:29;;;;;;;34.80;18.20;;;8.00;66.40;;;;;;10352210;28;20316;-87
2021/12/21 17:52:32;;;;;;;45.47;19.03;;;6.50;71.40;;;;;;10368934;28;20679;-87
2021/12/21 17:57:35;;;;;;;24.80;14.23;;;7.80;69.80;;;;;;10370014;28;20240;-87
2021/12/21 18:02:37;;;;;;;96.93;37.27;;;7.60;69.60;;;;;;10369411;28;20248;-87
2021/12/21 18:07:40;;;;;;;54.20;24.47;;;5.80;73.60;;;;;;10369852;28;20279;-87
2021/12/21 18:12:43;;;;;;;36.73;19.90;;;6.20;75.50;;;;;;10368262;28;20668;-87
2021/12/21 18:17:45;;;;;;;23.40;14.23;;;4.50;77.80;;;;;;10367247;28;20239;-87
2021/12/21 18:22:48;;;;;;;14.03;9.10;;;5.70;80.40;;;;;;10368220;28;20264;-87
2021/12/21 18:27:52;;;;;;;23.40;11.77;;;6.90;67.10;;;;;;10368488;28;20259;-87
2021/12/21 18:32:55;;;;;;;13.23;8.43;;;5.80;74.10;;;;;;10383482;28;20608;-86
2021/12/21 18:37:58;;;;;;;14.43;8.33;;;4.80;70.20;;;;;;10366584;28;20212;-87
2021/12/21 18:43:05;;;;;;;14.33;9.43;;;5.80;71.80;;;;;;10366596;28;20279;-87
2021/12/21 18:48:08;;;;;;;19.03;11.70;;;5.30;70.50;;;;;;10371004;28;20228;-89
2021/12/21 18:53:10;;;;;;;16.83;10.63;;;6.30;79.40;;;;;;10384893;28;20259;-89
2021/12/21 18:58:13;;;;;;;17.00;10.00;;;2.10;94.10;;;;;;10367438;28;20240;-89
2021/12/21 19:03:20;;;;;;;18.50;10.60;;;5.50;99.60;;;;;;10349852;28;20716;-87
2021/12/21 19:08:23;;;;;;;13.47;8.57;;;6.90;94.20;;;;;;10387375;28;20301;-89
2021/12/21 19:13:26;;;;;;;20.83;10.57;;;8.10;92.80;;;;;;10376726;28;20235;-88
2021/12/21 19:18:30;;;;;;;12.80;7.97;;;8.70;88.40;;;;;;10405662;28;20235;-89
2021/12/21 19:23:33;;;;;;;15.37;8.20;;;9.30;91.20;;;;;;10392483;28;20711;-89
2021/12/21 19:28:35;;;;;;;14.60;7.97;;;9.80;90.50;;;;;;10377620;28;20291;-88
2021/12/21 19:33:38;;;;;;;18.47;8.63;;;9.90;90.40;;;;;;10406367;28;20268;-88
2021/12/21 19:38:40;;;;;;;11.43;7.33;;;10.20;90.10;;;;;;10404832;28;20267;-88
2021/12/21 19:43:44;;;;;;;13.37;8.00;;;10.50;90.20;;;;;;10407549;28;20318;-88
2021/12/21 19:48:47;;;;;;;10.90;7.07;;;10.80;89.20;;;;;;10367200;28;20235;-89
2021/12/21 19:53:53;;;;;;;13.57;8.30;;;10.80;89.90;;;;;;10365647;28;20238;-88
2021/12/21 19:58:55;;;;;;;10.30;7.20;;;10.90;89.70;;;;;;10398375;28;20230;-87
2021/12/21 20:03:58;;;;;;;12.80;7.73;;;11.00;89.80;;;;;;10393227;28;20253;-90
2021/12/21 20:09:01;;;;;;;12.67;7.73;;;10.80;89.40;;;;;;10378757;28;20972;-88
2021/12/21 20:14:04;;;;;;;12.60;7.80;;;10.90;90.50;;;;;;10388648;28;20243;-87
2021/12/21 20:19:07;;;;;;;12.80;7.90;;;11.20;90.20;;;;;;10399044;28;20242;-89
2021/12/21 20:24:09;;;;;;;14.93;7.23;;;11.10;90.20;;;;;;10399773;28;20346;-88
2021/12/21 20:29:12;;;;;;;12.53;7.20;;;10.70;90.80;;;;;;10407847;28;20234;-89
2021/12/21 20:34:16;;;;;;;12.67;7.93;;;10.90;91.40;;;;;;10385465;28;20288;-90
2021/12/21 20:39:18;;;;;;;11.20;7.60;;;11.50;90.30;;;;;;10406701;28;20572;-89
2021/12/21 20:44:21;;;;;;;14.00;7.63;;;11.70;89.90;;;;;;10407315;28;20247;-91
2021/12/21 20:49:24;;;;;;;16.57;9.90;;;12.00;88.40;;;;;;10383283;28;20198;-90
2021/12/21 20:54:26;;;;;;;13.30;7.83;;;11.70;88.70;;;;;;10411143;28;20214;-88
2021/12/21 20:59:29;;;;;;;12.80;8.30;;;11.80;88.80;;;;;;10395343;28;20218;-89
2021/12/21 21:04:32;;;;;;;13.47;7.90;;;11.90;88.00;;;;;;10411226;28;20657;-88
2021/12/21 21:09:37;;;;;;;12.60;8.17;;;11.90;87.90;;;;;;10412724;28;20231;-89
2021/12/21 21:14:40;;;;;;;14.53;8.10;;;12.10;87.30;;;;;;10416367;28;20289;-89
2021/12/21 21:19:43;;;;;;;11.40;7.87;;;12.00;87.00;;;;;;10391682;28;20622;-90
2021/12/21 21:24:45;;;;;;;11.80;7.90;;;11.90;87.20;;;;;;10389688;28;20730;-89
2021/12/21 21:29:48;;;;;;;13.27;8.80;;;11.90;87.30;;;;;;10391056;28;20232;-88
2021/12/21 21:34:50;;;;;;;15.37;9.77;;;11.80;87.30;;;;;;10391835;28;20262;-88
2021/12/21 21:39:53;;;;;;;14.17;9.17;;;11.70;87.30;;;;;;10392023;28;20247;-89
2021/12/21 21:44:56;;;;;;;16.27;9.63;;;11.90;86.80;;;;;;10394718;28;20251;-88
2021/12/21 21:50:00;;;;;;;16.57;9.47;;;11.90;86.40;;;;;;10387043;28;20770;-88
2021/12/21 21:55:03;;;;;;;14.13;8.87;;;11.90;86.00;;;;;;10396234;28;20239;-88
2021/12/21 22:00:11;;;;;;;15.87;9.47;;;12.00;85.70;;;;;;10393542;28;20271;-87
2021/12/21 22:05:14;;;;;;;17.60;9.83;;;12.00;85.30;;;;;;10399779;28;20250;-88
2021/12/21 22:10:17;;;;;;;17.57;10.33;;;11.90;85.40;;;;;;10404201;28;20236;-87
2021/12/21 22:15:19;;;;;;;17.13;9.17;;;11.90;85.00;;;;;;10379737;28;20698;-88
2021/12/21 22:20:22;;;;;;;18.07;10.27;;;12.00;84.60;;;;;;10391331;28;20239;-88
2021/12/21 22:25:24;;;;;;;14.13;9.47;;;12.00;84.60;;;;;;10367594;28;20251;-87
2021/12/21 22:30:27;;;;;;;14.73;8.97;;;11.70;84.80;;;;;;10397406;28;20257;-87
2021/12/21 22:35:30;;;;;;;19.77;10.97;;;11.60;84.80;;;;;;10409636;28;20235;-87
2021/12/21 22:40:32;;;;;;;18.43;10.83;;;11.50;85.20;;;;;;10409184;28;20227;-88
2021/12/21 22:45:35;;;;;;;19.63;10.10;;;11.50;85.10;;;;;;10404207;28;20262;-87
2021/12/21 22:50:40;;;;;;;18.23;10.47;;;11.60;84.80;;;;;;10386199;28;20253;-88
2021/12/21 22:55:42;;;;;;;22.43;12.10;;;11.70;84.30;;;;;;10389126;28;20671;-87
2021/12/21 23:00:48;;;;;;;19.23;10.40;;;11.60;84.10;;;;;;10389486;28;20298;-88
2021/12/21 23:05:51;;;;;;;18.87;10.80;;;11.50;84.20;;;;;;10390143;28;20262;-87
2021/12/21 23:10:54;;;;;;;18.50;11.23;;;11.40;84.50;;;;;;10403977;28;20648;-86
2021/12/21 23:15:56;;;;;;;17.90;11.23;;;11.40;84.50;;;;;;10394797;28;20247;-88
2021/12/21 23:20:59;;;;;;;18.90;11.20;;;11.40;84.30;;;;;;10370488;28;20262;-88
2021/12/21 23:26:02;;;;;;;20.93;11.47;;;11.50;83.50;;;;;;10395263;28;20387;-87
2021/12/21 23:31:23;;;;;;;18.50;10.63;;;11.70;82.70;;;;;;10407759;28;20215;-88
2021/12/21 23:36:27;;;;;;;20.87;11.43;;;11.80;82.10;;;;;;10391443;28;20257;-89
2021/12/21 23:41:30;;;;;;;21.37;12.27;;;11.90;81.30;;;;;;10362783;28;20269;-88
2021/12/21 23:46:32;;;;;;;23.53;11.93;;;12.00;80.90;;;;;;10366408;28;20337;-88
2021/12/21 23:51:35;;;;;;;24.50;12.80;;;12.00;80.60;;;;;;10366921;28;20257;-88
2021/12/21 23:56:37;;;;;;;19.50;11.03;;;11.90;80.60;;;;;;10367107;28;20260;-88
